If you wish to contribute or participate in the discussions about articles you are invited to join SKYbrary as a registered user

 Actions

Iwo Jima Air Base

From SKYbrary Wiki

RJAW
Airport
ICAO: RJAW – IATA: IWO
Summary
Name Iwo Jima Air Base
Region Asia and Pacific
Territory Japan JP.gif
Location Iwo Jima, Bonin Islands
Serving Iwo Jima
Elevation 117.043 m
384 ft
384 ft117.043 m
Coordinates 24° 47' 3.55" N, 141° 19' 20.24" E
Runways
Designator Length Width Surface ROPS
7/25 2652 m8,700.787 ft
61 m200.131 ft
ASP yes/yes


METAR
Observation RJAW 110900Z 31009KT 9999 SCT010 BKN100 22/21 Q1010 RMK 4CU010 7AC100 A2983
Station Iwojima
Date/Time 11 April 2019 09:00:00
Wind direction 310°
Wind speed 09 kts
Lowest cloud amount scattered clouds
Temperature 22°C
Dew point 21°C
Humidity 94%
QNH 1010 hPa
Weather condition n/a

WX
Tag(s) Tropical Revolving Storm

Airfield operated by Japan Self-Defence Force on the island of Iwo Jima.

Climatology

Humid subtropical climate (Köppen climate classification Cfa).

Maps

Terrain

Loading map...

Airport Layout

Loading map...


Accidents & Serious Incidents at or in vicinity of RJAW

None on SKYbrary